Latest Weather Observations for Lancelin (Defence)

IDW60801

Issued at 1:13 pm WST Monday 30 March 2020 (issued every 10 minutes, with the page automatically refreshed every 10 minutes)

About weather observations | Map of weather stations | Latest weather observations for WA | Other Formats
Station Details ID: 009280 Name: LANCELIN (DEFENCE) Lat: -30.84 Lon: 115.23 Height: 3.41 m
Data from the previous 72 hours. | See also: Recent months at Lancelin (Defence)
Date/Time
WST
Temp
°C
App
Temp
°C
Dew
Point
°C
Rel
Hum
%
Delta-T
°C
Wind Press
QNH
hPa
Press
MSL
hPa
Rain since
9am
mm
Dir  Spd
km/h
Gust
km/h
Spd
kts
Gust
kts
30/01:00pm 22.1 18.7 11.2 50 6.0 SSW 20 28 11 15 1016.9 1016.9 0.0
30/12:30pm 22.0 18.6 10.5 48 6.3 SSW 19 24 10 13 1017.4 1017.4 0.0
30/12:00pm 22.1 18.8 10.9 49 6.2 SSW 19 22 10 12 1017.7 1017.7 0.0
30/11:30am 22.2 19.1 8.7 42 7.2 S 15 19 8 10 1018.0 1018.0 0.0
30/11:00am 22.3 19.8 8.4 41 7.3 SSE 11 19 6 10 1018.5 1018.5 0.0
30/10:30am 22.9 20.0 8.2 39 7.8 ESE 13 20 7 11 1018.7 1018.7 0.0
30/10:00am 21.5 18.3 8.4 43 6.9 ESE 15 24 8 13 1018.9 1018.9 0.0
30/09:30am 20.7 16.8 8.7 46 6.3 E 19 26 10 14 1019.1 1019.1 0.0
30/09:00am 19.0 14.7 9.2 53 5.1 E 22 30 12 16 1019.4 1019.4 0.0
30/08:30am 17.6 14.4 9.8 60 4.1 E 17 28 9 15 1019.3 1019.3 0.0
30/08:00am 16.2 13.6 9.2 63 3.6 E 13 20 7 11 1019.1 1019.1 0.0
30/07:30am 16.1 13.5 9.3 64 3.5 ENE 13 19 7 10 1019.3 1019.3 0.0
30/07:00am 14.4 12.6 9.4 72 2.6 ENE 9 13 5 7 1019.1 1019.1 0.0
30/06:30am 14.6 12.3 9.0 69 2.8 E 11 15 6 8 1018.8 1018.8 0.0
30/06:00am 14.8 12.2 9.2 69 2.9 E 13 17 7 9 1018.7 1018.7 0.0
30/05:30am 14.4 12.2 9.4 72 2.6 E 11 17 6 9 1018.7 1018.7 0.0
30/05:00am 14.7 12.4 9.1 69 2.9 E 11 17 6 9 1018.5 1018.5 0.0
30/04:30am 15.0 12.8 9.4 69 2.9 E 11 17 6 9 1018.3 1018.3 0.0
30/04:00am 15.1 13.0 9.7 70 2.8 E 11 19 6 10 1017.9 1017.9 0.0
30/03:30am 14.9 13.2 9.9 72 2.6 E 9 15 5 8 1017.8 1017.8 0.0
30/03:00am 14.9 12.9 10.3 74 2.4 E 11 17 6 9 1018.0 1018.0 0.0
30/02:30am 15.0 13.5 10.6 75 2.3 E 9 15 5 8 1018.2 1018.2 0.0
30/02:00am 15.4 14.0 11.0 75 2.3 E 9 15 5 8 1018.2 1018.2 0.0
30/01:30am 15.5 14.1 10.9 74 2.4 ESE 9 17 5 9 1018.1 1018.1 0.0
30/01:00am 15.5 13.7 10.7 73 2.5 E 11 15 6 8 1018.1 1018.1 0.0
30/12:30am 15.9 14.4 10.7 71 2.8 E 9 15 5 8 1018.1 1018.1 0.0
30/12:00am 16.0 13.8 10.7 71 2.8 ESE 13 19 7 10 1018.1 1018.1 0.0
 
Date/Time
WST
Temp
°C
App
Temp
°C
Dew
Point
°C
Rel
Hum
%
Delta-T
°C
Wind Press
QNH
hPa
Press
MSL
hPa
Rain since
9am
mm
Dir  Spd
km/h
Gust
km/h
Spd
kts
Gust
kts
29/11:30pm 16.6 14.7 10.5 67 3.2 ESE 11 17 6 9 1018.6 1018.6 0.0
29/11:00pm 17.2 15.5 11.2 68 3.2 ESE 11 17 6 9 1018.9 1018.9 0.0
29/10:30pm 16.6 15.7 11.5 72 2.8 E 7 11 4 6 1019.3 1019.3 0.0
29/10:00pm 16.9 15.4 11.8 72 2.8 ESE 11 15 6 8 1019.2 1019.2 0.0
29/09:30pm 16.7 15.6 12.0 74 2.6 ESE 9 15 5 8 1019.3 1019.3 0.0
29/09:00pm 17.1 15.9 11.6 70 3.0 ESE 9 15 5 8 1019.2 1019.2 0.0
29/08:30pm 20.2 17.9 10.6 54 5.2 SSW 13 19 7 10 1019.1 1019.1 0.0
29/08:00pm 20.0 17.5 11.0 56 4.9 S 15 26 8 14 1019.0 1019.0 0.0
29/07:30pm 20.2 17.7 10.9 55 5.1 SSW 15 20 8 11 1018.9 1018.9 0.0
29/07:00pm 20.1 17.6 11.1 56 4.9 S 15 22 8 12 1018.5 1018.5 0.0
29/06:30pm 20.1 17.8 11.8 59 4.6 S 15 24 8 13 1018.5 1018.5 0.0
29/06:00pm 20.0 17.2 12.7 63 4.1 S 19 26 10 14 1018.4 1018.4 0.0
29/05:30pm 20.4 17.9 12.4 60 4.5 SSW 17 24 9 13 1018.3 1018.3 0.0
29/05:00pm 21.0 18.1 12.9 60 4.6 SSW 20 28 11 15 1018.1 1018.1 0.0
29/04:30pm 21.4 18.5 12.3 56 5.1 S 19 28 10 15 1018.0 1018.0 0.0
29/04:00pm 21.6 19.1 12.2 55 5.3 SSW 17 24 9 13 1018.2 1018.2 0.0
29/03:30pm 21.7 18.4 11.7 53 5.6 SSW 20 26 11 14 1018.2 1018.2 0.0
29/03:00pm 21.9 18.9 10.7 49 6.1 SSW 17 24 9 13 1018.0 1018.0 0.0
29/02:30pm 22.1 19.0 10.3 47 6.4 S 17 24 9 13 1017.8 1017.8 0.0
29/02:00pm 22.8 19.6 11.8 50 6.2 S 20 26 11 14 1017.9 1017.9 0.0
29/01:30pm 21.9 19.4 11.0 50 6.0 S 15 22 8 12 1018.2 1018.2 0.0
29/01:00pm 22.2 19.6 11.9 52 5.8 S 17 22 9 12 1018.4 1018.4 0.0
29/12:30pm 21.8 19.0 11.2 51 5.9 S 17 24 9 13 1018.7 1018.7 0.0
29/12:00pm 21.9 19.8 11.3 51 5.9 S 13 19 7 10 1019.0 1019.0 0.0
29/11:30am 21.9 20.1 11.0 50 6.0 S 11 17 6 9 1019.2 1019.2 0.0
29/11:00am 21.2 19.4 10.7 51 5.7 S 11 17 6 9 1019.5 1019.5 0.0
29/10:30am 21.4 20.1 9.9 48 6.2 SSE 7 15 4 8 1019.5 1019.5 0.0
29/10:00am 20.9 19.2 9.8 49 5.9 E 9 13 5 7 1019.6 1019.6 0.0
29/09:30am 20.4 18.3 9.6 50 5.8 ENE 11 17 6 9 1019.7 1019.7 0.0
29/09:00am 19.4 17.0 9.9 54 5.1 ENE 13 20 7 11 1019.5 1019.5 0.0
29/08:30am 18.6 16.1 9.7 56 4.7 ENE 13 19 7 10 1019.3 1019.3 0.0
29/08:00am 17.8 16.4 10.9 64 3.7 ENE 9 15 5 8 1019.2 1019.2 0.0
29/07:30am 17.2 16.3 11.2 68 3.2 ENE 7 11 4 6 1018.9 1018.9 0.0
29/07:00am 16.6 15.7 11.3 71 2.9 ENE 7 11 4 6 1018.7 1018.7 0.0
29/06:30am 16.4 15.4 11.1 71 2.8 ENE 7 11 4 6 1018.3 1018.3 0.0
29/06:00am 16.1 14.8 11.1 72 2.7 NE 9 13 5 7 1017.7 1017.7 0.0
29/05:30am 16.5 15.2 11.2 71 2.9 ENE 9 13 5 7 1017.6 1017.6 0.0
29/05:00am 17.0 15.7 11.3 69 3.1 ENE 9 13 5 7 1017.2 1017.2 0.0
29/04:30am 19.8 17.3 14.0 69 3.3 S 20 33 11 18 1016.6 1016.6 0.0
29/04:00am 19.6 16.9 12.8 65 3.8 S 19 28 10 15 1016.5 1016.5 0.0
29/03:30am 19.9 17.0 12.9 64 4.0 S 20 30 11 16 1016.2 1016.2 0.0
29/03:00am 20.0 16.8 12.0 60 4.4 S 20 30 11 16 1016.4 1016.4 0.0
29/02:30am 20.0 16.9 12.3 61 4.3 S 20 30 11 16 1016.5 1016.5 0.0
29/02:00am 19.7 16.7 12.0 61 4.3 S 19 28 10 15 1016.8 1016.8 0.0
29/01:30am 19.8 16.9 11.0 57 4.8 S 17 24 9 13 1017.0 1017.0 0.0
29/01:00am 19.9 16.8 11.7 59 4.5 S 19 30 10 16 1017.1 1017.1 0.0
29/12:30am 19.9 16.7 11.1 57 4.8 S 19 24 10 13 1017.4 1017.4 0.0
29/12:00am 19.9 16.5 10.6 55 5.0 S 19 28 10 15 1017.3 1017.3 0.0
 
Date/Time
WST
Temp
°C
App
Temp
°C
Dew
Point
°C
Rel
Hum
%
Delta-T
°C
Wind Press
QNH
hPa
Press
MSL
hPa
Rain since
9am
mm
Dir  Spd
km/h
Gust
km/h
Spd
kts
Gust
kts
28/11:30pm 19.8 17.5 11.8 60 4.4 S 15 20 8 11 1017.8 1017.8 0.0
28/11:00pm 19.5 17.4 11.0 58 4.6 S 13 20 7 11 1017.9 1017.9 0.0
28/10:30pm 19.9 17.4 11.1 57 4.8 SSW 15 20 8 11 1018.1 1018.1 0.0
28/10:00pm 19.8 16.9 11.0 57 4.8 SSW 17 24 9 13 1018.1 1018.1 0.0
28/09:30pm 20.0 16.9 11.5 58 4.7 SSW 19 26 10 14 1018.4 1018.4 0.0
28/09:00pm 20.1 16.6 12.1 60 4.5 SSW 22 30 12 16 1018.0 1018.0 0.0
28/08:30pm 20.3 16.9 12.5 61 4.4 SSW 22 32 12 17 1018.1 1018.1 0.0
28/08:00pm 20.3 17.4 13.0 63 4.1 SSW 20 30 11 16 1017.4 1017.4 0.0
28/07:30pm 20.4 17.5 12.4 60 4.5 SSW 19 26 10 14 1017.3 1017.3 0.0
28/07:00pm 20.6 17.4 11.8 57 4.9 S 20 26 11 14 1017.1 1017.1 0.0
28/06:30pm 20.7 17.6 11.6 56 5.0 SSW 19 28 10 15 1017.0 1017.0 0.0
28/06:00pm 20.9 18.1 12.6 59 4.7 SSW 19 26 10 14 1016.7 1016.7 0.0
28/05:30pm 21.1 19.2 13.0 60 4.6 S 15 24 8 13 1016.6 1016.6 0.0
28/05:00pm 21.5 19.1 13.9 62 4.4 S 19 26 10 14 1016.2 1016.2 0.0
28/04:30pm 21.4 18.6 13.1 59 4.7 SSW 20 28 11 15 1016.4 1016.4 0.0
28/04:00pm 22.1 19.1 12.6 55 5.4 S 20 28 11 15 1016.6 1016.6 0.0
28/03:30pm 22.4 19.4 12.1 52 5.8 S 19 28 10 15 1016.3 1016.3 0.0
28/03:00pm 22.4 19.5 12.4 53 5.7 SSW 19 26 10 14 1016.1 1016.1 0.0
28/02:30pm 22.4 19.6 12.6 54 5.6 SSW 19 26 10 14 1016.0 1016.0 0.0
28/02:00pm 22.9 20.5 12.5 52 5.9 SSW 17 24 9 13 1016.1 1016.1 0.0
28/01:30pm 22.6 19.8 13.1 55 5.5 SSW 20 26 11 14 1016.7 1016.7 0.0
28/01:00pm 22.7 20.1 13.7 56 5.2 SSW 20 26 11 14 1016.7 1016.7 0.0
28/12:30pm 22.4 19.3 12.1 52 5.8 SSW 20 28 11 15 1016.8 1016.8 0.0
28/12:00pm 22.6 20.1 12.3 52 5.8 SSW 17 24 9 13 1017.2 1017.2 0.0
28/11:30am 22.1 19.1 12.6 55 5.4 SSW 20 26 11 14 1017.4 1017.4 0.0
28/11:00am 22.2 19.2 12.7 55 5.4 SSW 20 26 11 14 1017.4 1017.4 0.0
28/10:30am 21.9 19.1 13.3 58 4.9 SSW 20 30 11 16 1017.6 1017.6 0.0
28/10:00am 22.0 19.5 13.6 59 4.8 SSW 19 26 10 14 1017.5 1017.5 0.0
28/09:30am 21.4 18.7 13.6 61 4.5 SSW 20 30 11 16 1017.3 1017.3 0.0
28/09:00am 21.5 19.1 14.4 64 4.1 SSW 20 26 11 14 1017.2 1017.2 3.0
28/08:30am 21.0 18.2 14.2 65 4.0 SSW 22 32 12 17 1017.0 1017.0 3.0
28/08:00am 21.6 18.9 14.7 65 4.1 SSW 22 32 12 17 1016.9 1016.9 3.0
28/07:30am 21.1 18.7 15.4 70 3.4 S 22 35 12 19 1016.1 1016.1 3.0
28/07:00am 21.1 18.5 15.0 68 3.6 SSW 22 30 12 16 1016.1 1016.1 3.0
28/06:30am 21.0 17.5 15.5 71 3.3 SSW 28 39 15 21 1015.5 1015.5 3.0
28/06:00am 21.3 18.3 15.8 71 3.3 SSW 26 33 14 18 1015.2 1015.2 3.0
28/05:30am 21.4 19.1 16.6 74 2.9 SSW 24 33 13 18 1015.0 1015.0 3.0
28/05:00am 21.4 17.9 16.6 74 2.9 SSW 30 37 16 20 1014.7 1014.7 3.0
28/04:30am 21.7 18.9 17.3 76 2.7 SSW 28 41 15 22 1014.4 1014.4 3.0
28/04:00am 21.5 19.0 18.9 85 1.6 SSW 30 39 16 21 1014.1 1014.1 3.0
28/03:30am 20.9 21.2 20.7 99 0.1 SSW 20 28 11 15 1013.9 1013.9 3.0
28/03:00am 21.2 22.5 20.9 98 0.2 SW 15 20 8 11 1013.7 1013.7 2.8
28/02:30am 21.1 21.5 20.9 99 0.1 SW 20 32 11 17 1013.6 1013.6 2.4
28/02:00am 21.8 21.1 19.5 87 1.5 WNW 22 33 12 18 1013.7 1013.7 0.0
28/01:30am 22.8 22.6 19.4 81 2.2 WNW 19 26 10 14 1013.5 1013.5 0.0
28/01:00am 22.8 22.4 19.4 81 2.2 WNW 20 28 11 15 1013.6 1013.6 0.0
28/12:30am 22.4 22.4 19.0 81 2.2 WNW 17 22 9 12 1013.6 1013.6 0.0
28/12:00am 22.4 22.4 19.0 81 2.2 WNW 17 26 9 14 1013.7 1013.7 0.0
 
Date/Time
WST
Temp
°C
App
Temp
°C
Dew
Point
°C
Rel
Hum
%
Delta-T
°C
Wind Press
QNH
hPa
Press
MSL
hPa
Rain since
9am
mm
Dir  Spd
km/h
Gust
km/h
Spd
kts
Gust
kts
27/11:30pm 22.5 22.4 18.7 79 2.4 WNW 17 24 9 13 1013.7 1013.7 0.0
27/11:00pm 22.6 22.4 18.6 78 2.5 WNW 17 24 9 13 1014.0 1014.0 0.0
27/10:30pm 22.8 22.6 18.6 77 2.6 W 17 20 9 11 1014.2 1014.2 0.0
27/10:00pm 22.6 22.3 18.2 76 2.8 W 17 20 9 11 1014.3 1014.3 0.0
27/09:30pm 22.6 22.4 17.7 74 3.0 W 15 20 8 11 1014.3 1014.3 0.0
27/09:00pm 22.6 22.4 17.7 74 3.0 W 15 20 8 11 1014.3 1014.3 0.0
27/08:30pm 22.8 21.8 17.5 72 3.3 W 19 26 10 14 1014.2 1014.2 0.0
27/08:00pm 22.8 22.0 18.1 75 2.9 W 19 26 10 14 1014.0 1014.0 0.0
27/07:30pm 23.1 22.6 19.1 78 2.5 W 20 28 11 15 1013.5 1013.5 0.0
27/07:00pm 23.1 21.7 18.8 77 2.7 W 24 30 13 16 1013.2 1013.2 0.0
27/06:30pm 23.4 23.0 19.3 78 2.6 W 20 28 11 15 1012.9 1012.9 0.0
27/06:00pm 23.5 23.4 19.6 79 2.5 WNW 19 24 10 13 1012.9 1012.9 0.0
27/05:30pm 23.8 23.5 19.5 77 2.8 WNW 20 26 11 14 1012.6 1012.6 0.0
27/05:00pm 25.1 24.8 20.4 75 3.1 WNW 22 30 12 16 1012.6 1012.6 0.0
27/04:30pm 25.7 25.2 20.0 71 3.7 NW 22 32 12 17 1012.6 1012.6 0.0
27/04:00pm 26.2 25.9 19.6 67 4.3 WNW 20 28 11 15 1012.5 1012.5 0.0
27/03:30pm 26.6 26.6 19.7 66 4.5 WNW 19 28 10 15 1012.6 1012.6 0.0
27/03:00pm 26.9 26.8 19.5 64 4.8 WNW 19 26 10 14 1012.5 1012.5 0.0
27/02:30pm 26.6 26.1 19.2 64 4.8 WNW 20 26 11 14 1012.5 1012.5 0.0
27/02:00pm 26.9 26.7 19.8 65 4.6 WNW 20 30 11 16 1012.6 1012.6 0.0
27/01:30pm 26.7 26.9 20.1 67 4.3 WNW 19 26 10 14 1012.9 1012.9 0.0

Other formats

Comma delimited format used in spreadsheet applications
http://www.bom.gov.au/fwo/IDW60801/IDW60801.95609.axf

JavaScript Object Notation format (JSON) in row-major order
http://www.bom.gov.au/fwo/IDW60801/IDW60801.95609.json

Data quality

Most of these data are generated automatically and are frequently updated. Quality checks on data are not normally performed. It is possible for incorrect values to appear. Refer to information at About Latest Weather Observations and please check the disclaimer before using these data.